Time,TemperatureF,DewpointF,PressureIn,WindDirection,WindDirectionDegrees,WindSpeedMPH,WindSpeedGustMPH,Humidity,HourlyPrecipIn,Conditions,Clouds,dailyrainin,SolarRadiationWatts/m^2,SoftwareType,DateUTC
2013-09-01 00:22:00,82.0,46.0,-100.00,ESE,107,6.0,13.0,28,0.00,,,0.00,316.000000,,2013-09-01 00:22:00,
2013-09-01 00:32:00,82.0,46.0,-100.00,ESE,107,6.0,13.0,28,0.00,,,0.00,316.000000,,2013-09-01 00:32:00,
2013-09-01 00:42:00,82.0,46.0,-100.00,ESE,107,6.0,13.0,28,0.00,,,0.00,316.000000,,2013-09-01 00:42:00,
2013-09-01 00:52:00,82.0,46.0,-100.00,ESE,107,6.0,13.0,28,0.00,,,0.00,316.000000,,2013-09-01 00:52:00,
2013-09-01 01:22:00,77.0,45.0,-100.00,NNW,345,6.0,15.0,32,0.00,,,0.00,138.000000,,2013-09-01 01:22:00,
2013-09-01 01:32:00,77.0,45.0,-100.00,NNW,345,6.0,15.0,32,0.00,,,0.00,138.000000,,2013-09-01 01:32:00,
2013-09-01 01:42:00,77.0,45.0,-100.00,NNW,345,6.0,15.0,32,0.00,,,0.00,138.000000,,2013-09-01 01:42:00,
2013-09-01 01:52:00,77.0,45.0,-100.00,NNW,345,6.0,15.0,32,0.00,,,0.00,138.000000,,2013-09-01 01:52:00,
2013-09-01 02:22:00,72.0,43.0,-100.00,NW,312,7.0,15.0,35,0.00,,,0.00,12.000000,,2013-09-01 02:22:00,
2013-09-01 02:32:00,72.0,43.0,-100.00,NW,312,7.0,15.0,35,0.00,,,0.00,12.000000,,2013-09-01 02:32:00,
2013-09-01 02:43:00,72.0,43.0,-100.00,NW,312,7.0,15.0,35,0.00,,,0.00,12.000000,,2013-09-01 02:43:00,
2013-09-01 02:53:00,72.0,43.0,-100.00,NW,312,7.0,15.0,35,0.00,,,0.00,12.000000,,2013-09-01 02:53:00,
2013-09-01 03:23:00,70.0,42.0,-100.00,North,7,5.0,11.0,36,0.00,,,0.00,0.000000,,2013-09-01 03:23:00,
2013-09-01 03:35:00,70.0,42.0,-100.00,North,7,5.0,11.0,36,0.00,,,0.00,0.000000,,2013-09-01 03:35:00,
2013-09-01 03:44:00,70.0,42.0,-100.00,North,7,5.0,11.0,36,0.00,,,0.00,0.000000,,2013-09-01 03:44:00,
2013-09-01 03:54:00,70.0,42.0,-100.00,North,7,5.0,11.0,36,0.00,,,0.00,0.000000,,2013-09-01 03:54:00,
2013-09-01 04:25:00,69.0,42.0,-100.00,NNE,16,4.0,8.0,37,0.00,,,0.00,0.000000,,2013-09-01 04:25:00,
2013-09-01 04:34:00,69.0,42.0,-100.00,NNE,16,4.0,8.0,37,0.00,,,0.00,0.000000,,2013-09-01 04:34:00,
2013-09-01 04:43:00,69.0,42.0,-100.00,NNE,16,4.0,8.0,37,0.00,,,0.00,0.000000,,2013-09-01 04:43:00,
2013-09-01 04:54:00,69.0,42.0,-100.00,NNE,16,4.0,8.0,37,0.00,,,0.00,0.000000,,2013-09-01 04:54:00,
2013-09-01 05:23:00,65.0,41.0,-100.00,NNW,329,2.0,8.0,41,0.00,,,0.00,0.000000,,2013-09-01 05:23:00,
2013-09-01 05:34:00,65.0,41.0,-100.00,NNW,329,2.0,8.0,41,0.00,,,0.00,0.000000,,2013-09-01 05:34:00,
2013-09-01 05:43:00,65.0,41.0,-100.00,NNW,329,2.0,8.0,41,0.00,,,0.00,0.000000,,2013-09-01 05:43:00,
2013-09-01 05:52:00,65.0,41.0,-100.00,NNW,329,2.0,8.0,41,0.00,,,0.00,0.000000,,2013-09-01 05:52:00,
2013-09-01 06:22:00,65.0,41.0,-100.00,North,4,2.0,8.0,41,0.00,,,0.00,0.000000,,2013-09-01 06:22:00,
2013-09-01 06:32:00,65.0,41.0,-100.00,North,4,2.0,8.0,41,0.00,,,0.00,0.000000,,2013-09-01 06:32:00,
2013-09-01 06:42:00,65.0,41.0,-100.00,North,4,2.0,8.0,41,0.00,,,0.00,0.000000,,2013-09-01 06:42:00,
2013-09-01 06:52:00,65.0,41.0,-100.00,North,4,2.0,8.0,41,0.00,,,0.00,0.000000,,2013-09-01 06:52:00,
2013-09-01 07:22:00,62.0,40.0,-100.00,NNE,18,1.0,6.0,44,0.00,,,0.00,0.000000,,2013-09-01 07:22:00,
2013-09-01 07:32:00,62.0,40.0,-100.00,NNE,18,1.0,6.0,44,0.00,,,0.00,0.000000,,2013-09-01 07:32:00,
2013-09-01 07:42:00,62.0,40.0,-100.00,NNE,18,1.0,6.0,44,0.00,,,0.00,0.000000,,2013-09-01 07:42:00,
2013-09-01 07:52:00,62.0,40.0,-100.00,NNE,18,1.0,6.0,44,0.00,,,0.00,0.000000,,2013-09-01 07:52:00,
2013-09-01 08:22:00,61.0,38.0,-100.00,WSW,238,1.0,4.0,43,0.00,,,0.00,0.000000,,2013-09-01 08:22:00,
2013-09-01 08:32:00,61.0,38.0,-100.00,WSW,238,1.0,4.0,43,0.00,,,0.00,0.000000,,2013-09-01 08:32:00,
2013-09-01 08:43:00,61.0,38.0,-100.00,WSW,238,1.0,4.0,43,0.00,,,0.00,0.000000,,2013-09-01 08:43:00,
2013-09-01 08:52:00,61.0,38.0,-100.00,WSW,238,1.0,4.0,43,0.00,,,0.00,0.000000,,2013-09-01 08:52:00,
2013-09-01 09:22:00,62.0,40.0,-100.00,SSE,164,1.0,3.0,44,0.00,,,0.00,0.000000,,2013-09-01 09:22:00,
2013-09-01 09:33:00,62.0,40.0,-100.00,SSE,164,1.0,3.0,44,0.00,,,0.00,0.000000,,2013-09-01 09:33:00,
2013-09-01 10:23:00,59.0,40.0,-100.00,SW,223,2.0,3.0,49,-99.99,,,0.00,0.000000,,2013-09-01 10:23:00,
2013-09-01 10:33:00,59.0,40.0,-100.00,SW,223,2.0,3.0,49,-99.99,,,0.00,0.000000,,2013-09-01 10:33:00,
2013-09-01 10:42:00,59.0,40.0,-100.00,SW,223,2.0,3.0,49,-99.99,,,0.00,0.000000,,2013-09-01 10:42:00,
2013-09-01 10:53:00,59.0,40.0,-100.00,SW,223,2.0,3.0,49,-99.99,,,0.00,0.000000,,2013-09-01 10:53:00,
2013-09-01 11:22:00,56.0,39.0,-100.00,NNW,348,3.0,4.0,53,0.00,,,0.00,0.000000,,2013-09-01 11:22:00,
2013-09-01 11:32:00,56.0,39.0,-100.00,NNW,348,3.0,4.0,53,0.00,,,0.00,0.000000,,2013-09-01 11:32:00,
2013-09-01 11:42:00,56.0,39.0,-100.00,NNW,348,3.0,4.0,53,0.00,,,0.00,0.000000,,2013-09-01 11:42:00,
2013-09-01 11:52:00,56.0,39.0,-100.00,NNW,348,3.0,4.0,53,0.00,,,0.00,0.000000,,2013-09-01 11:52:00,
2013-09-01 12:22:00,58.0,38.0,-100.00,North,6,5.0,7.0,47,0.00,,,0.00,0.000000,,2013-09-01 12:22:00,
2013-09-01 12:32:00,58.0,38.0,-100.00,North,6,5.0,7.0,47,0.00,,,0.00,0.000000,,2013-09-01 12:32:00,
2013-09-01 12:42:00,58.0,38.0,-100.00,North,6,5.0,7.0,47,0.00,,,0.00,0.000000,,2013-09-01 12:42:00,
2013-09-01 12:52:00,58.0,38.0,-100.00,North,6,5.0,7.0,47,0.00,,,0.00,0.000000,,2013-09-01 12:52:00,
2013-09-01 13:21:00,53.0,39.0,-100.00,SSW,210,4.0,7.0,58,0.00,,,0.00,11.000000,,2013-09-01 13:21:00,
2013-09-01 13:32:00,53.0,39.0,-100.00,SSW,210,4.0,7.0,58,0.00,,,0.00,11.000000,,2013-09-01 13:32:00,
2013-09-01 13:42:00,53.0,39.0,-100.00,SSW,210,4.0,7.0,58,0.00,,,0.00,11.000000,,2013-09-01 13:42:00,
2013-09-01 13:52:00,53.0,39.0,-100.00,SSW,210,4.0,7.0,58,0.00,,,0.00,11.000000,,2013-09-01 13:52:00,
2013-09-01 14:52:00,65.0,41.0,-100.00,SSE,147,2.0,4.0,42,0.00,,,0.00,158.000000,,2013-09-01 14:52:00,
2013-09-01 15:23:00,67.0,41.0,-100.00,NNW,347,4.0,6.0,39,0.00,,,0.00,348.000000,,2013-09-01 15:23:00,
2013-09-01 15:34:00,67.0,41.0,-100.00,NNW,347,4.0,6.0,39,0.00,,,0.00,348.000000,,2013-09-01 15:34:00,
2013-09-01 15:45:00,67.0,41.0,-100.00,NNW,347,4.0,6.0,39,0.00,,,0.00,348.000000,,2013-09-01 15:45:00,
2013-09-01 15:55:00,67.0,41.0,-100.00,NNW,347,4.0,6.0,39,0.00,,,0.00,348.000000,,2013-09-01 15:55:00,
2013-09-01 16:24:00,71.0,40.0,-100.00,West,280,3.0,7.0,33,0.00,,,0.00,529.000000,,2013-09-01 16:24:00,
2013-09-01 16:34:00,71.0,40.0,-100.00,West,280,3.0,7.0,33,0.00,,,0.00,529.000000,,2013-09-01 16:34:00,
2013-09-01 16:43:00,71.0,40.0,-100.00,West,280,3.0,7.0,33,0.00,,,0.00,529.000000,,2013-09-01 16:43:00,
2013-09-01 16:53:00,71.0,40.0,-100.00,West,280,3.0,7.0,33,0.00,,,0.00,529.000000,,2013-09-01 16:53:00,
2013-09-01 17:23:00,78.0,41.0,-100.00,NW,319,3.0,7.0,27,0.00,,,0.00,683.000000,,2013-09-01 17:23:00,
2013-09-01 17:34:00,78.0,41.0,-100.00,NW,319,3.0,7.0,27,0.00,,,0.00,683.000000,,2013-09-01 17:34:00,
2013-09-01 17:42:00,78.0,41.0,-100.00,NW,319,3.0,7.0,27,0.00,,,0.00,683.000000,,2013-09-01 17:42:00,
2013-09-01 17:52:00,78.0,41.0,-100.00,NW,319,3.0,7.0,27,0.00,,,0.00,683.000000,,2013-09-01 17:52:00,
2013-09-01 18:42:00,81.0,41.0,-100.00,South,180,6.0,13.0,24,0.00,,,0.00,801.000000,,2013-09-01 18:42:00,
2013-09-01 18:52:00,81.0,41.0,-100.00,South,180,6.0,13.0,24,0.00,,,0.00,801.000000,,2013-09-01 18:52:00,
2013-09-01 19:22:00,81.0,41.0,-100.00,SSW,203,7.0,16.0,24,0.00,,,0.00,856.000000,,2013-09-01 19:22:00,
2013-09-01 19:32:00,81.0,41.0,-100.00,SSW,203,7.0,16.0,24,0.00,,,0.00,856.000000,,2013-09-01 19:32:00,
2013-09-01 19:42:00,81.0,41.0,-100.00,SSW,203,7.0,16.0,24,0.00,,,0.00,856.000000,,2013-09-01 19:42:00,
2013-09-01 19:52:00,81.0,41.0,-100.00,SSW,203,7.0,16.0,24,0.00,,,0.00,856.000000,,2013-09-01 19:52:00,
2013-09-01 20:22:00,83.0,39.0,-100.00,SE,146,6.0,13.0,21,0.00,,,0.00,852.000000,,2013-09-01 20:22:00,
2013-09-01 20:32:00,83.0,39.0,-100.00,SE,146,6.0,13.0,21,0.00,,,0.00,852.000000,,2013-09-01 20:32:00,
2013-09-01 20:42:00,83.0,39.0,-100.00,SE,146,6.0,13.0,21,0.00,,,0.00,852.000000,,2013-09-01 20:42:00,
2013-09-01 20:52:00,83.0,39.0,-100.00,SE,146,6.0,13.0,21,0.00,,,0.00,852.000000,,2013-09-01 20:52:00,
2013-09-01 21:43:00,85.0,35.0,-100.00,SSW,212,8.0,13.0,17,0.00,,,0.00,788.000000,,2013-09-01 21:43:00,
2013-09-01 21:55:00,85.0,35.0,-100.00,SSW,212,8.0,13.0,17,0.00,,,0.00,788.000000,,2013-09-01 21:55:00,
2013-09-01 22:24:00,85.0,37.0,-100.00,SW,222,7.0,15.0,18,0.00,,,0.00,668.000000,,2013-09-01 22:24:00,
2013-09-01 22:34:00,85.0,37.0,-100.00,SW,222,7.0,15.0,18,0.00,,,0.00,668.000000,,2013-09-01 22:34:00,
2013-09-01 22:43:00,85.0,37.0,-100.00,SW,222,7.0,15.0,18,0.00,,,0.00,668.000000,,2013-09-01 22:43:00,
2013-09-01 22:53:00,85.0,37.0,-100.00,SW,222,7.0,15.0,18,0.00,,,0.00,668.000000,,2013-09-01 22:53:00,
2013-09-01 23:23:00,85.0,41.0,-100.00,SSE,156,6.0,17.0,21,0.00,,,0.00,514.000000,,2013-09-01 23:23:00,
2013-09-01 23:34:00,85.0,41.0,-100.00,SSE,156,6.0,17.0,21,0.00,,,0.00,514.000000,,2013-09-01 23:34:00,
2013-09-01 23:42:00,85.0,41.0,-100.00,SSE,156,6.0,17.0,21,0.00,,,0.00,514.000000,,2013-09-01 23:42:00,
2013-09-01 23:53:00,85.0,41.0,-100.00,SSE,156,6.0,17.0,21,0.00,,,0.00,514.000000,,2013-09-01 23:53:00,